Time;durP1;ratioP1;P1;durP2;ratioP2;P2;SDS_P1;SDS_P2;PMS_P1;PMS_P2;Temp;Humidity;BMP_temperature;BMP_pressure;BME280_temperature;BME280_humidity;BME280_pressure;Samples;Min_cycle;Max_cycle;Signal;HPM_P1;HPM_P2
2023/12/17 00:01:17;;;;;;;;;88.33;65.33;;;;;;;;5079727;27;45521;-67
2023/12/17 00:03:42;;;;;;;;;90.67;66.67;;;;;;;;5092730;27;45840;-67
2023/12/17 00:06:07;;;;;;;;;88.00;68.33;;;;;;;;5099455;27;45440;-67
2023/12/17 00:08:32;;;;;;;;;79.50;60.25;;;;;;;;5088550;27;45412;-68
2023/12/17 00:10:59;;;;;;;;;92.67;69.67;;;;;;;;5095949;27;45367;-67
2023/12/17 00:13:24;;;;;;;;;97.00;77.00;;;;;;;;5099681;27;45387;-67
2023/12/17 00:15:50;;;;;;;;;91.50;70.00;;;;;;;;5094793;27;45310;-68
2023/12/17 00:18:15;;;;;;;;;88.00;68.00;;;;;;;;5099863;27;45267;-69
2023/12/17 00:20:40;;;;;;;;;96.00;72.67;;;;;;;;5092446;27;45846;-67
2023/12/17 00:23:05;;;;;;;;;91.50;68.00;;;;;;;;5097273;27;45771;-67
2023/12/17 00:25:31;;;;;;;;;96.33;71.33;;;;;;;;5099760;27;45729;-67
2023/12/17 00:27:56;;;;;;;;;95.50;71.50;;;;;;;;5099248;27;45282;-67
2023/12/17 00:30:21;;;;;;;;;94.25;74.00;;;;;;;;5099719;27;45263;-67
2023/12/17 00:32:47;;;;;;;;;89.00;73.00;;;;;;;;5094566;27;45955;-67
2023/12/17 00:35:12;;;;;;;;;94.00;68.75;;;;;;;;5099102;27;45421;-68
2023/12/17 00:37:37;;;;;;;;;99.33;76.00;;;;;;;;5099835;27;45242;-68
2023/12/17 00:40:02;;;;;;;;;95.33;73.33;;;;;;;;5098563;27;45272;-67
2023/12/17 00:42:28;;;;;;;;;93.25;71.50;;;;;;;;5099236;27;46907;-69
2023/12/17 00:44:53;;;;;;;;;91.67;75.00;;;;;;;;5090080;27;45470;-69
2023/12/17 00:47:18;;;;;;;;;91.00;68.67;;;;;;;;5099535;27;45215;-69
2023/12/17 00:49:43;;;;;;;;;96.33;73.33;;;;;;;;5095668;27;45605;-67
2023/12/17 00:52:08;;;;;;;;;97.00;73.00;;;;;;;;5093856;27;45627;-67
2023/12/17 00:54:33;;;;;;;;;73.67;57.67;;;;;;;;5090237;27;45378;-67
2023/12/17 00:56:59;;;;;;;;;92.67;70.00;;;;;;;;5098918;27;45467;-66
2023/12/17 00:59:24;;;;;;;;;87.67;71.00;;;;;;;;5081234;27;45418;-67
2023/12/17 01:01:50;;;;;;;;;93.25;74.25;;;;;;;;5098695;27;45747;-67
2023/12/17 01:04:15;;;;;;;;;95.50;72.00;;;;;;;;5098940;27;45508;-68
2023/12/17 01:06:41;;;;;;;;;88.33;68.33;;;;;;;;5095449;27;45453;-69
2023/12/17 01:09:06;;;;;;;;;93.75;71.00;;;;;;;;5093600;27;45386;-67
2023/12/17 01:11:31;;;;;;;;;96.33;68.00;;;;;;;;5099141;27;45847;-67
2023/12/17 01:13:57;;;;;;;;;85.00;64.00;;;;;;;;5098772;27;45231;-67
2023/12/17 01:16:22;;;;;;;;;92.33;68.33;;;;;;;;5080402;27;45397;-67
2023/12/17 01:18:47;;;;;;;;;90.67;67.33;;;;;;;;5099306;27;45640;-67
2023/12/17 01:21:12;;;;;;;;;86.67;64.33;;;;;;;;5098094;27;46172;-69
2023/12/17 01:23:37;;;;;;;;;94.00;68.33;;;;;;;;5099016;27;45248;-67
2023/12/17 01:26:03;;;;;;;;;86.00;66.33;;;;;;;;5098417;27;45427;-68
2023/12/17 01:28:28;;;;;;;;;82.75;64.25;;;;;;;;5098984;27;45294;-68
2023/12/17 01:30:53;;;;;;;;;92.67;66.00;;;;;;;;5097430;27;46469;-68
2023/12/17 01:33:18;;;;;;;;;86.00;64.67;;;;;;;;5098228;27;45285;-68
2023/12/17 01:35:43;;;;;;;;;88.67;66.00;;;;;;;;5092187;27;45390;-68
2023/12/17 01:38:09;;;;;;;;;46.67;29.33;;;;;;;;5090065;27;45454;-67
2023/12/17 01:40:34;;;;;;;;;87.75;66.50;;;;;;;;5098345;27;46211;-69
2023/12/17 01:43:01;;;;;;;;;89.00;65.00;;;;;;;;5098577;27;45334;-67
2023/12/17 01:45:26;;;;;;;;;89.50;65.50;;;;;;;;5095064;27;46334;-68
2023/12/17 01:47:52;;;;;;;;;84.33;64.00;;;;;;;;5098782;27;45212;-69
2023/12/17 01:50:17;;;;;;;;;82.25;64.50;;;;;;;;5093633;27;46500;-69
2023/12/17 01:52:42;;;;;;;;;80.75;63.25;;;;;;;;5097527;27;45471;-68
2023/12/17 01:55:08;;;;;;;;;83.50;64.50;;;;;;;;5098212;27;45199;-68
2023/12/17 01:57:33;;;;;;;;;89.25;65.25;;;;;;;;5098681;27;45422;-69
2023/12/17 01:59:58;;;;;;;;;79.50;62.25;;;;;;;;5098046;27;46907;-70
2023/12/17 02:02:24;;;;;;;;;86.25;64.75;;;;;;;;5079732;27;45405;-70
2023/12/17 02:04:49;;;;;;;;;84.00;63.00;;;;;;;;5098031;27;45368;-67
2023/12/17 02:07:14;;;;;;;;;85.25;64.50;;;;;;;;5070520;28;45489;-66
2023/12/17 02:09:40;;;;;;;;;87.75;66.00;;;;;;;;5097093;27;46250;-67
2023/12/17 02:12:05;;;;;;;;;82.75;64.75;;;;;;;;5094806;27;45479;-67
2023/12/17 02:14:30;;;;;;;;;88.75;63.00;;;;;;;;5093172;27;45528;-67
2023/12/17 02:16:56;;;;;;;;;85.33;64.00;;;;;;;;5094310;27;45542;-67
2023/12/17 02:19:21;;;;;;;;;81.50;64.00;;;;;;;;5094621;27;46439;-69
2023/12/17 02:21:46;;;;;;;;;84.00;61.67;;;;;;;;5095942;27;45429;-67
2023/12/17 02:24:12;;;;;;;;;88.50;64.50;;;;;;;;5094855;27;45426;-67
2023/12/17 02:26:40;;;;;;;;;79.25;59.75;;;;;;;;5092084;27;45358;-69
2023/12/17 02:29:05;;;;;;;;;81.50;60.50;;;;;;;;5090116;27;46826;-67
2023/12/17 02:31:30;;;;;;;;;78.33;62.33;;;;;;;;5093850;27;45349;-67
2023/12/17 02:33:55;;;;;;;;;82.33;62.00;;;;;;;;5096792;27;45260;-67
2023/12/17 02:36:20;;;;;;;;;77.33;60.33;;;;;;;;5096873;27;45724;-68
2023/12/17 02:38:46;;;;;;;;;74.67;59.33;;;;;;;;5094336;27;47019;-68
2023/12/17 02:41:11;;;;;;;;;69.33;57.67;;;;;;;;5096679;27;45508;-67
2023/12/17 02:43:36;;;;;;;;;78.33;57.33;;;;;;;;5095219;27;45417;-67
2023/12/17 02:46:01;;;;;;;;;77.67;59.00;;;;;;;;5081210;27;45457;-67
2023/12/17 02:48:26;;;;;;;;;80.25;60.00;;;;;;;;5081393;27;46436;-67
2023/12/17 02:50:52;;;;;;;;;78.67;60.67;;;;;;;;5091771;27;45489;-67
2023/12/17 02:53:17;;;;;;;;;75.00;59.00;;;;;;;;5091571;27;45621;-66
2023/12/17 02:55:42;;;;;;;;;81.67;59.67;;;;;;;;5087265;27;45449;-69
2023/12/17 02:58:07;;;;;;;;;68.67;53.67;;;;;;;;5066866;28;47076;-69
2023/12/17 03:00:32;;;;;;;;;78.67;57.67;;;;;;;;5094048;27;45464;-68
2023/12/17 03:02:57;;;;;;;;;81.67;61.00;;;;;;;;5077148;27;45665;-67
2023/12/17 03:05:23;;;;;;;;;82.00;61.00;;;;;;;;5094369;27;45322;-68
2023/12/17 03:07:48;;;;;;;;;79.00;58.33;;;;;;;;5091453;27;46728;-67
2023/12/17 03:10:13;;;;;;;;;80.00;57.67;;;;;;;;5094335;27;45290;-67
2023/12/17 03:12:38;;;;;;;;;76.00;60.67;;;;;;;;5097057;27;45411;-70
2023/12/17 03:15:04;;;;;;;;;75.50;53.25;;;;;;;;5097169;27;45644;-67
2023/12/17 03:17:29;;;;;;;;;78.75;61.25;;;;;;;;5077405;27;48343;-67
2023/12/17 03:19:54;;;;;;;;;70.67;55.33;;;;;;;;5087746;27;45541;-67
2023/12/17 03:22:20;;;;;;;;;67.75;56.25;;;;;;;;5089923;27;45351;-67
2023/12/17 03:24:45;;;;;;;;;69.67;56.67;;;;;;;;5079794;27;45589;-67
2023/12/17 03:27:10;;;;;;;;;18.67;12.33;;;;;;;;5083566;27;45436;-67
2023/12/17 03:29:35;;;;;;;;;71.00;55.67;;;;;;;;5083651;27;45424;-67
2023/12/17 03:32:02;;;;;;;;;73.33;57.00;;;;;;;;5084067;27;45553;-70
2023/12/17 03:34:27;;;;;;;;;75.00;57.25;;;;;;;;5081414;27;45401;-66
2023/12/17 03:36:52;;;;;;;;;74.00;57.00;;;;;;;;5080474;27;46907;-67
2023/12/17 03:39:18;;;;;;;;;76.33;57.33;;;;;;;;5086367;27;45409;-66
2023/12/17 03:41:43;;;;;;;;;77.25;60.00;;;;;;;;5087695;27;45672;-67
2023/12/17 03:44:08;;;;;;;;;70.00;57.00;;;;;;;;5080659;27;45468;-66
2023/12/17 03:46:34;;;;;;;;;69.33;53.00;;;;;;;;5078623;27;46549;-68
2023/12/17 03:48:59;;;;;;;;;67.25;52.00;;;;;;;;5078063;27;45509;-67
2023/12/17 03:51:24;;;;;;;;;69.67;54.00;;;;;;;;5083294;27;45314;-67
2023/12/17 03:53:49;;;;;;;;;64.33;49.33;;;;;;;;5091140;27;45516;-67
2023/12/17 03:56:15;;;;;;;;;71.67;55.00;;;;;;;;5091797;27;46049;-69
2023/12/17 03:58:41;;;;;;;;;71.50;53.75;;;;;;;;5074083;27;46111;-67
2023/12/17 04:01:07;;;;;;;;;68.25;55.50;;;;;;;;5096693;27;45311;-68
2023/12/17 04:03:32;;;;;;;;;65.25;52.25;;;;;;;;5086457;27;45239;-67
2023/12/17 04:05:58;;;;;;;;;64.50;51.00;;;;;;;;5090000;27;45996;-68
2023/12/17 04:08:23;;;;;;;;;69.75;52.00;;;;;;;;5069496;27;45410;-69
2023/12/17 04:10:49;;;;;;;;;71.25;54.50;;;;;;;;5083580;27;45682;-68
2023/12/17 04:13:14;;;;;;;;;64.33;52.00;;;;;;;;5082007;27;45454;-67
2023/12/17 04:15:39;;;;;;;;;68.00;51.00;;;;;;;;5089463;27;46811;-67
2023/12/17 04:18:04;;;;;;;;;64.33;51.00;;;;;;;;5082884;27;45417;-68
2023/12/17 04:20:30;;;;;;;;;69.50;51.50;;;;;;;;5081722;27;45409;-67
2023/12/17 04:22:55;;;;;;;;;61.33;47.00;;;;;;;;5095212;27;45548;-68
2023/12/17 04:25:20;;;;;;;;;67.33;53.00;;;;;;;;5083447;27;46362;-67
2023/12/17 04:27:45;;;;;;;;;32.67;21.67;;;;;;;;5092197;27;45428;-67
2023/12/17 04:30:11;;;;;;;;;61.33;47.00;;;;;;;;5087546;27;45362;-67
2023/12/17 04:32:36;;;;;;;;;60.00;46.00;;;;;;;;5093781;27;45627;-69
2023/12/17 04:35:03;;;;;;;;;62.50;48.50;;;;;;;;5092385;27;46066;-69
2023/12/17 04:37:28;;;;;;;;;59.00;47.25;;;;;;;;5081734;27;45281;-69
2023/12/17 04:39:53;;;;;;;;;60.75;47.00;;;;;;;;5094788;27;45366;-67
2023/12/17 04:42:19;;;;;;;;;58.67;46.00;;;;;;;;5094830;27;45353;-67
2023/12/17 04:44:44;;;;;;;;;59.00;43.25;;;;;;;;5085025;27;45581;-67
2023/12/17 04:47:09;;;;;;;;;52.00;42.67;;;;;;;;5086888;27;45216;-67
2023/12/17 04:49:35;;;;;;;;;56.50;44.50;;;;;;;;5086560;27;45709;-68
2023/12/17 04:52:00;;;;;;;;;55.25;44.75;;;;;;;;5087001;27;45640;-69
2023/12/17 04:54:25;;;;;;;;;61.67;45.00;;;;;;;;5079927;27;46075;-68
2023/12/17 04:56:50;;;;;;;;;53.67;45.00;;;;;;;;5067745;27;46040;-67
2023/12/17 04:59:15;;;;;;;;;50.50;42.00;;;;;;;;5097628;27;45268;-69
2023/12/17 05:01:40;;;;;;;;;64.00;49.33;;;;;;;;5078268;27;45374;-67
2023/12/17 05:04:06;;;;;;;;;52.33;41.00;;;;;;;;5093171;27;45480;-67
2023/12/17 05:06:31;;;;;;;;;63.67;44.33;;;;;;;;5092161;27;45264;-67
2023/12/17 05:08:56;;;;;;;;;55.67;44.33;;;;;;;;5091792;27;45385;-66
2023/12/17 05:11:21;;;;;;;;;48.33;41.33;;;;;;;;5072439;27;45496;-67
2023/12/17 05:13:46;;;;;;;;;52.33;41.33;;;;;;;;5080880;27;46643;-67
2023/12/17 05:16:12;;;;;;;;;51.33;39.00;;;;;;;;5088054;27;45482;-67
2023/12/17 05:18:37;;;;;;;;;46.25;39.00;;;;;;;;5076465;27;45247;-67
2023/12/17 05:21:02;;;;;;;;;42.33;35.00;;;;;;;;5095802;27;45762;-67
2023/12/17 05:23:27;;;;;;;;;46.00;39.00;;;;;;;;5096477;27;45456;-67
2023/12/17 05:25:52;;;;;;;;;42.67;35.00;;;;;;;;5095659;27;45212;-69
2023/12/17 05:28:18;;;;;;;;;37.75;32.50;;;;;;;;5092153;27;45256;-67
2023/12/17 05:30:43;;;;;;;;;45.67;38.67;;;;;;;;5091933;27;45439;-67
2023/12/17 05:33:08;;;;;;;;;44.67;39.00;;;;;;;;5094715;27;46692;-67
2023/12/17 05:35:33;;;;;;;;;48.00;39.33;;;;;;;;5090127;27;45426;-67
2023/12/17 05:37:58;;;;;;;;;41.50;35.25;;;;;;;;5086053;27;45240;-67
2023/12/17 05:40:24;;;;;;;;;37.67;30.67;;;;;;;;5073502;27;45481;-67
2023/12/17 05:42:49;;;;;;;;;33.25;31.25;;;;;;;;5097845;27;45589;-68
2023/12/17 05:45:14;;;;;;;;;41.33;35.00;;;;;;;;5088825;27;45416;-66
2023/12/17 05:47:39;;;;;;;;;31.00;27.33;;;;;;;;5087368;27;45295;-67
2023/12/17 05:50:05;;;;;;;;;39.50;29.75;;;;;;;;5089822;27;46627;-67
2023/12/17 05:52:30;;;;;;;;;32.50;28.50;;;;;;;;5079615;27;45492;-67
2023/12/17 05:54:55;;;;;;;;;10.00;3.00;;;;;;;;5085588;27;45449;-69
2023/12/17 05:57:21;;;;;;;;;41.50;30.50;;;;;;;;5095187;27;45453;-67
2023/12/17 05:59:46;;;;;;;;;33.00;28.00;;;;;;;;5090212;27;45449;-67
2023/12/17 06:02:11;;;;;;;;;33.75;26.00;;;;;;;;5097292;27;45489;-67
2023/12/17 06:04:36;;;;;;;;;31.50;27.50;;;;;;;;5219194;22;46124;-67
2023/12/17 06:07:02;;;;;;;;;26.33;25.00;;;;;;;;5089268;27;45593;-68
2023/12/17 06:09:27;;;;;;;;;28.50;26.00;;;;;;;;5092503;27;45468;-68
2023/12/17 06:11:52;;;;;;;;;30.67;22.67;;;;;;;;5093380;27;45676;-67
2023/12/17 06:14:17;;;;;;;;;29.75;25.00;;;;;;;;5083347;27;45421;-67
2023/12/17 06:16:43;;;;;;;;;23.75;23.50;;;;;;;;5064317;28;45341;-67
2023/12/17 06:19:08;;;;;;;;;22.00;20.25;;;;;;;;5080939;27;45481;-68
2023/12/17 06:21:33;;;;;;;;;21.25;18.75;;;;;;;;5080570;27;46683;-69
2023/12/17 06:23:59;;;;;;;;;25.25;23.25;;;;;;;;5063040;27;45502;-68
2023/12/17 06:26:24;;;;;;;;;22.00;22.00;;;;;;;;5093954;27;45567;-67
2023/12/17 06:28:50;;;;;;;;;22.75;21.75;;;;;;;;5097020;27;45304;-69
2023/12/17 06:31:15;;;;;;;;;23.75;20.00;;;;;;;;5091780;27;45440;-67
2023/12/17 06:33:40;;;;;;;;;28.50;22.00;;;;;;;;5096781;27;45361;-66
2023/12/17 06:36:05;;;;;;;;;29.50;24.50;;;;;;;;5085463;27;45381;-67
2023/12/17 06:38:31;;;;;;;;;21.50;18.00;;;;;;;;5094473;27;45582;-67
2023/12/17 06:40:56;;;;;;;;;22.00;17.33;;;;;;;;5086751;27;46278;-67
2023/12/17 06:43:21;;;;;;;;;19.25;18.75;;;;;;;;5096249;27;45277;-67
2023/12/17 06:45:46;;;;;;;;;17.67;17.00;;;;;;;;5083548;27;45450;-67
2023/12/17 06:48:11;;;;;;;;;22.33;19.33;;;;;;;;5081702;27;45502;-69
2023/12/17 06:50:37;;;;;;;;;19.33;18.00;;;;;;;;5085091;27;45698;-66
2023/12/17 06:53:02;;;;;;;;;23.75;18.75;;;;;;;;5079473;27;45270;-66
2023/12/17 06:55:27;;;;;;;;;27.25;21.50;;;;;;;;5080446;27;45220;-67
2023/12/17 06:57:52;;;;;;;;;25.00;21.00;;;;;;;;5097742;27;46395;-66
2023/12/17 07:00:17;;;;;;;;;21.33;18.33;;;;;;;;5089523;27;45570;-68
2023/12/17 07:02:43;;;;;;;;;15.00;14.50;;;;;;;;5073696;27;46160;-67
2023/12/17 07:05:08;;;;;;;;;21.25;18.75;;;;;;;;5092968;27;45311;-66
2023/12/17 07:07:34;;;;;;;;;24.50;21.00;;;;;;;;5093210;27;45676;-67
2023/12/17 07:09:59;;;;;;;;;19.00;18.50;;;;;;;;5086852;27;45688;-67
2023/12/17 07:12:24;;;;;;;;;18.75;18.00;;;;;;;;5084544;27;45383;-67
2023/12/17 07:14:50;;;;;;;;;18.67;15.33;;;;;;;;5084858;27;45306;-67
2023/12/17 07:17:15;;;;;;;;;18.67;18.33;;;;;;;;5088025;27;45412;-67
2023/12/17 07:19:40;;;;;;;;;18.33;18.00;;;;;;;;5082276;27;46342;-68
2023/12/17 07:22:05;;;;;;;;;17.25;15.00;;;;;;;;5083916;27;45370;-66
2023/12/17 07:24:31;;;;;;;;;22.00;18.00;;;;;;;;5080532;27;45532;-67
2023/12/17 07:26:56;;;;;;;;;22.25;17.50;;;;;;;;5060063;27;45420;-66
2023/12/17 07:29:21;;;;;;;;;21.67;20.00;;;;;;;;5090396;27;46347;-68
2023/12/17 07:31:46;;;;;;;;;24.00;17.67;;;;;;;;5090472;27;45594;-67
2023/12/17 07:34:12;;;;;;;;;23.25;20.00;;;;;;;;5088534;27;45335;-68
2023/12/17 07:36:38;;;;;;;;;20.50;18.00;;;;;;;;5068011;27;45704;-69
2023/12/17 07:39:04;;;;;;;;;23.00;15.67;;;;;;;;5090424;27;45986;-70
2023/12/17 07:41:30;;;;;;;;;14.75;14.75;;;;;;;;5091513;27;45483;-69
2023/12/17 07:43:55;;;;;;;;;22.75;19.00;;;;;;;;5089415;27;45358;-68
2023/12/17 07:46:20;;;;;;;;;18.25;18.25;;;;;;;;5096350;27;45518;-69
2023/12/17 07:48:46;;;;;;;;;17.75;17.00;;;;;;;;5079771;27;46571;-69
2023/12/17 07:51:11;;;;;;;;;25.25;21.25;;;;;;;;5093912;27;45533;-68
2023/12/17 07:53:36;;;;;;;;;22.00;17.67;;;;;;;;5073109;27;45377;-69
2023/12/17 07:56:01;;;;;;;;;23.33;18.33;;;;;;;;5089593;27;45825;-68
2023/12/17 07:58:28;;;;;;;;;25.50;19.50;;;;;;;;5098912;27;45681;-68
2023/12/17 08:00:53;;;;;;;;;24.75;21.25;;;;;;;;5087348;27;45516;-69
2023/12/17 08:03:22;;;;;;;;;21.50;17.75;;;;;;;;5097258;27;45461;-69
2023/12/17 08:05:47;;;;;;;;;19.75;19.50;;;;;;;;5088496;27;45336;-69
2023/12/17 08:08:12;;;;;;;;;22.33;18.00;;;;;;;;5092648;27;46470;-69
2023/12/17 08:10:38;;;;;;;;;18.25;18.25;;;;;;;;5097484;27;45351;-70
2023/12/17 08:13:03;;;;;;;;;13.00;13.00;;;;;;;;5096168;27;45188;-69
2023/12/17 08:15:28;;;;;;;;;16.75;16.75;;;;;;;;5085404;27;45566;-70
2023/12/17 08:17:53;;;;;;;;;24.25;23.50;;;;;;;;5088670;27;45784;-69
2023/12/17 08:20:18;;;;;;;;;23.33;21.00;;;;;;;;5097866;27;45536;-69
2023/12/17 08:22:44;;;;;;;;;29.33;22.00;;;;;;;;5093558;27;45274;-69
2023/12/17 08:25:09;;;;;;;;;23.33;19.67;;;;;;;;5096956;27;45426;-68
2023/12/17 08:27:34;;;;;;;;;23.75;21.50;;;;;;;;5097960;27;46558;-69
2023/12/17 08:29:59;;;;;;;;;22.00;17.50;;;;;;;;5094430;27;45440;-69
2023/12/17 08:32:31;;;;;;;;;24.33;22.00;;;;;;;;5088035;27;45433;-69
2023/12/17 08:34:56;;;;;;;;;22.50;18.75;;;;;;;;5091444;27;45498;-69
2023/12/17 08:37:23;;;;;;;;;24.67;23.00;;;;;;;;5092967;27;46839;-69
2023/12/17 08:39:49;;;;;;;;;26.25;22.75;;;;;;;;5087488;27;45240;-69
2023/12/17 08:42:14;;;;;;;;;24.00;16.33;;;;;;;;5079142;27;45332;-69
2023/12/17 08:44:39;;;;;;;;;27.33;23.00;;;;;;;;5087142;27;45634;-68
2023/12/17 08:47:04;;;;;;;;;24.67;21.33;;;;;;;;5087565;27;46427;-68
2023/12/17 08:49:29;;;;;;;;;23.67;21.67;;;;;;;;5083536;27;45236;-69
2023/12/17 08:51:55;;;;;;;;;18.00;17.00;;;;;;;;5083790;27;45577;-70
2023/12/17 08:54:20;;;;;;;;;26.33;20.33;;;;;;;;5080614;27;45355;-69
2023/12/17 08:56:45;;;;;;;;;22.67;22.67;;;;;;;;5079190;27;46396;-68
2023/12/17 08:59:10;;;;;;;;;23.00;20.67;;;;;;;;5086835;27;45260;-69
2023/12/17 09:01:36;;;;;;;;;26.33;22.00;;;;;;;;5093852;27;45394;-69
2023/12/17 09:04:01;;;;;;;;;27.25;18.00;;;;;;;;5095820;27;45592;-69
2023/12/17 09:06:26;;;;;;;;;28.75;23.50;;;;;;;;5095233;27;45706;-69
2023/12/17 09:08:51;;;;;;;;;26.67;20.33;;;;;;;;5091406;27;45315;-69
2023/12/17 09:11:17;;;;;;;;;27.67;21.67;;;;;;;;5097058;27;45393;-69
2023/12/17 09:13:42;;;;;;;;;25.25;19.25;;;;;;;;5087390;27;45577;-69
2023/12/17 09:16:07;;;;;;;;;27.75;20.25;;;;;;;;5095219;27;45418;-69
2023/12/17 09:18:32;;;;;;;;;21.75;18.75;;;;;;;;5091315;27;45326;-70
2023/12/17 09:20:58;;;;;;;;;28.00;23.50;;;;;;;;5089365;27;45488;-68
2023/12/17 09:23:23;;;;;;;;;24.00;21.33;;;;;;;;5081452;27;45393;-69
2023/12/17 09:25:48;;;;;;;;;17.75;14.75;;;;;;;;5084385;27;46227;-70
2023/12/17 09:28:13;;;;;;;;;24.25;21.00;;;;;;;;5094913;27;45326;-69
2023/12/17 09:30:39;;;;;;;;;19.50;16.75;;;;;;;;5092891;27;45465;-70
2023/12/17 09:33:04;;;;;;;;;25.33;22.33;;;;;;;;5090359;27;45335;-70
2023/12/17 09:35:29;;;;;;;;;24.00;20.33;;;;;;;;5088547;27;46732;-70
2023/12/17 09:37:54;;;;;;;;;25.00;22.33;;;;;;;;5086156;27;45291;-69
2023/12/17 09:40:19;;;;;;;;;28.00;19.50;;;;;;;;5070043;27;45367;-69
2023/12/17 09:42:48;;;;;;;;;28.25;19.50;;;;;;;;5091819;27;45227;-68
2023/12/17 09:45:14;;;;;;;;;26.00;19.75;;;;;;;;5078422;27;47693;-69
2023/12/17 09:47:40;;;;;;;;;22.00;19.50;;;;;;;;5089361;27;45323;-69
2023/12/17 09:50:05;;;;;;;;;27.25;22.25;;;;;;;;5088279;27;45402;-68
2023/12/17 09:52:33;;;;;;;;;23.50;19.50;;;;;;;;5080431;27;45370;-68
2023/12/17 09:55:03;;;;;;;;;27.00;20.00;;;;;;;;5087631;27;46378;-68
2023/12/17 09:57:29;;;;;;;;;19.50;19.25;;;;;;;;5086357;27;45177;-68
2023/12/17 09:59:54;;;;;;;;;21.67;18.00;;;;;;;;5097091;27;45421;-69
2023/12/17 10:02:19;;;;;;;;;24.33;21.67;;;;;;;;5097346;27;45709;-69
2023/12/17 10:04:44;;;;;;;;;25.50;19.25;;;;;;;;5096208;27;45715;-68
2023/12/17 10:07:09;;;;;;;;;27.33;24.33;;;;;;;;5093506;27;45309;-70
2023/12/17 10:09:35;;;;;;;;;23.75;19.25;;;;;;;;5092431;27;45534;-68
2023/12/17 10:12:01;;;;;;;;;24.50;21.25;;;;;;;;5087435;27;45430;-69
2023/12/17 10:14:30;;;;;;;;;32.25;26.25;;;;;;;;5070874;27;47421;-69
2023/12/17 10:16:55;;;;;;;;;24.50;22.50;;;;;;;;5086881;27;45346;-69
2023/12/17 10:19:20;;;;;;;;;35.50;28.75;;;;;;;;5094029;27;45436;-69
2023/12/17 10:21:46;;;;;;;;;28.50;20.50;;;;;;;;5077988;27;45414;-70
2023/12/17 10:24:12;;;;;;;;;34.00;24.00;;;;;;;;5082586;27;45371;-69
2023/12/17 10:26:55;;;;;;;;;28.00;23.00;;;;;;;;5086754;27;45484;-69
2023/12/17 10:29:21;;;;;;;;;23.00;20.75;;;;;;;;5093173;27;45455;-68
2023/12/17 10:31:46;;;;;;;;;20.75;18.25;;;;;;;;5092928;27;47233;-69
2023/12/17 10:34:24;;;;;;;;;20.00;20.00;;;;;;;;5091441;27;45964;-68
2023/12/17 10:36:50;;;;;;;;;26.25;22.00;;;;;;;;5091824;27;47003;-68
2023/12/17 10:39:16;;;;;;;;;23.75;19.50;;;;;;;;5089436;27;45314;-70
2023/12/17 10:41:42;;;;;;;;;18.00;16.50;;;;;;;;5095993;27;45289;-68
2023/12/17 10:44:12;;;;;;;;;26.75;22.25;;;;;;;;5070341;27;46542;-70
2023/12/17 10:46:40;;;;;;;;;20.00;18.50;;;;;;;;5088996;27;45353;-69
2023/12/17 10:49:06;;;;;;;;;21.50;17.75;;;;;;;;5082131;27;45486;-69
2023/12/17 10:51:32;;;;;;;;;26.50;19.75;;;;;;;;5075834;27;45389;-69
2023/12/17 10:53:57;;;;;;;;;34.50;22.75;;;;;;;;5079123;27;46674;-69
2023/12/17 10:56:22;;;;;;;;;21.00;17.33;;;;;;;;5087190;27;45465;-69
2023/12/17 10:58:48;;;;;;;;;25.25;19.75;;;;;;;;5094540;27;45437;-70
2023/12/17 11:01:14;;;;;;;;;20.00;16.50;;;;;;;;5095147;27;45509;-69
2023/12/17 11:03:40;;;;;;;;;24.75;22.75;;;;;;;;5093650;27;46586;-69
2023/12/17 11:06:05;;;;;;;;;27.25;24.75;;;;;;;;5095387;27;45216;-70
2023/12/17 11:08:30;;;;;;;;;22.25;21.00;;;;;;;;5086925;27;45330;-69
2023/12/17 11:10:57;;;;;;;;;27.25;22.50;;;;;;;;5093195;27;45456;-69
2023/12/17 11:13:22;;;;;;;;;22.50;19.75;;;;;;;;5083448;27;46529;-70
2023/12/17 11:15:47;;;;;;;;;30.25;24.75;;;;;;;;5087070;27;45249;-69
2023/12/17 11:18:13;;;;;;;;;17.25;17.25;;;;;;;;5090908;27;45164;-69
2023/12/17 11:20:42;;;;;;;;;24.75;21.00;;;;;;;;5087335;27;45721;-67
2023/12/17 11:23:07;;;;;;;;;24.75;21.50;;;;;;;;5093866;27;46795;-68
2023/12/17 11:25:33;;;;;;;;;25.00;25.00;;;;;;;;5094566;27;45501;-68
2023/12/17 11:27:58;;;;;;;;;21.75;20.25;;;;;;;;5096801;27;45558;-68
2023/12/17 11:30:31;;;;;;;;;30.00;22.00;;;;;;;;5089518;27;45636;-69
2023/12/17 11:33:00;;;;;;;;;28.00;23.00;;;;;;;;5094374;27;46026;-68
2023/12/17 11:35:29;;;;;;;;;24.75;20.25;;;;;;;;5068606;27;46197;-68
2023/12/17 11:37:55;;;;;;;;;27.50;21.00;;;;;;;;5087165;27;45478;-68
2023/12/17 11:40:20;;;;;;;;;34.25;28.75;;;;;;;;5093794;27;45495;-69
2023/12/17 11:42:55;;;;;;;;;30.25;26.00;;;;;;;;5097573;27;46451;-69
2023/12/17 11:45:37;;;;;;;;;29.50;26.25;;;;;;;;5094170;27;45640;-68
2023/12/17 11:48:07;;;;;;;;;28.50;24.75;;;;;;;;5096801;27;45347;-69
2023/12/17 11:50:39;;;;;;;;;32.50;28.00;;;;;;;;5094761;27;45491;-68
2023/12/17 11:53:05;;;;;;;;;28.75;24.25;;;;;;;;5097620;27;46134;-69
2023/12/17 11:55:39;;;;;;;;;32.75;25.25;;;;;;;;5093627;27;45474;-69
2023/12/17 11:58:04;;;;;;;;;24.75;23.25;;;;;;;;5089156;27;45469;-68
2023/12/17 12:00:29;;;;;;;;;26.00;23.67;;;;;;;;5095066;27;45562;-69
2023/12/17 12:02:54;;;;;;;;;27.00;25.67;;;;;;;;5092640;27;46545;-69
2023/12/17 12:05:20;;;;;;;;;22.67;19.67;;;;;;;;5090458;27;45558;-70
2023/12/17 12:07:45;;;;;;;;;27.33;24.00;;;;;;;;5087231;27;45913;-69
2023/12/17 12:10:10;;;;;;;;;25.25;23.00;;;;;;;;5078724;27;45534;-70
2023/12/17 12:12:36;;;;;;;;;21.50;19.25;;;;;;;;5084772;27;46457;-69
2023/12/17 12:15:02;;;;;;;;;30.75;24.50;;;;;;;;5083526;27;45366;-68
2023/12/17 12:17:41;;;;;;;;;33.00;27.00;;;;;;;;5079473;27;45372;-69
2023/12/17 12:20:06;;;;;;;;;31.50;25.00;;;;;;;;5089281;27;46448;-68
2023/12/17 12:22:31;;;;;;;;;28.25;23.50;;;;;;;;5084117;27;45722;-68
2023/12/17 12:24:57;;;;;;;;;33.00;24.50;;;;;;;;5096138;27;45840;-69
2023/12/17 12:27:22;;;;;;;;;24.75;19.75;;;;;;;;5098233;27;45393;-69
2023/12/17 12:29:48;;;;;;;;;26.50;22.50;;;;;;;;5093109;27;45413;-69
2023/12/17 12:32:24;;;;;;;;;32.50;27.25;;;;;;;;5092515;27;46556;-69
2023/12/17 12:34:51;;;;;;;;;36.75;25.25;;;;;;;;5097800;27;45504;-69
2023/12/17 12:37:29;;;;;;;;;28.25;24.00;;;;;;;;5096271;27;45490;-69
2023/12/17 12:39:55;;;;;;;;;24.50;24.00;;;;;;;;5094565;27;46820;-70
2023/12/17 12:42:20;;;;;;;;;25.75;23.00;;;;;;;;5095264;27;45902;-69
2023/12/17 12:44:45;;;;;;;;;35.50;32.25;;;;;;;;5095783;27;45441;-70
2023/12/17 12:47:11;;;;;;;;;31.75;26.00;;;;;;;;5095730;27;45320;-68
2023/12/17 12:49:36;;;;;;;;;34.25;28.00;;;;;;;;5095667;27;45651;-69
2023/12/17 12:52:01;;;;;;;;;34.00;23.33;;;;;;;;5097292;27;46681;-72
2023/12/17 12:54:27;;;;;;;;;34.50;27.75;;;;;;;;5096558;27;45453;-69
2023/12/17 12:56:52;;;;;;;;;36.25;29.50;;;;;;;;5094692;27;45469;-69
2023/12/17 12:59:17;;;;;;;;;30.33;27.67;;;;;;;;5092498;27;45795;-70
2023/12/17 13:01:42;;;;;;;;;34.67;29.00;;;;;;;;5092083;27;46566;-70
2023/12/17 13:04:07;;;;;;;;;23.33;23.33;;;;;;;;5094614;27;45435;-69
2023/12/17 13:06:32;;;;;;;;;34.33;28.67;;;;;;;;5091836;27;45403;-69
2023/12/17 13:08:58;;;;;;;;;27.33;25.33;;;;;;;;5098046;27;45476;-69
2023/12/17 13:11:23;;;;;;;;;34.33;29.00;;;;;;;;5091510;27;45609;-68
2023/12/17 13:13:48;;;;;;;;;38.50;30.75;;;;;;;;5092060;27;45477;-69
2023/12/17 13:16:14;;;;;;;;;30.67;28.00;;;;;;;;5096688;27;45558;-71
2023/12/17 13:18:39;;;;;;;;;41.75;34.25;;;;;;;;5095260;27;45544;-69
2023/12/17 13:21:04;;;;;;;;;43.67;35.67;;;;;;;;5095476;27;46723;-69
2023/12/17 13:23:29;;;;;;;;;41.00;32.00;;;;;;;;5091977;27;45611;-69
2023/12/17 13:25:55;;;;;;;;;40.25;33.00;;;;;;;;5092390;27;45932;-70
2023/12/17 13:28:21;;;;;;;;;39.50;29.00;;;;;;;;5090720;27;45514;-69
2023/12/17 13:30:46;;;;;;;;;37.00;29.33;;;;;;;;5085407;27;45655;-69
2023/12/17 13:33:11;;;;;;;;;36.75;29.75;;;;;;;;5094338;27;45773;-69
2023/12/17 13:35:36;;;;;;;;;39.75;36.50;;;;;;;;5088612;27;45709;-69
2023/12/17 13:38:02;;;;;;;;;37.25;35.50;;;;;;;;5088172;27;45472;-71
2023/12/17 13:40:29;;;;;;;;;29.50;26.75;;;;;;;;5090548;27;46788;-69
2023/12/17 13:42:55;;;;;;;;;37.00;27.50;;;;;;;;5083540;27;45496;-69
2023/12/17 13:45:20;;;;;;;;;29.75;23.25;;;;;;;;5096378;27;45370;-70
2023/12/17 13:47:45;;;;;;;;;38.25;32.75;;;;;;;;5091341;27;45745;-70
2023/12/17 13:50:12;;;;;;;;;32.50;30.25;;;;;;;;5073412;27;47515;-68
2023/12/17 13:52:37;;;;;;;;;27.25;21.25;;;;;;;;5093136;27;45699;-69
2023/12/17 13:55:05;;;;;;;;;37.25;30.50;;;;;;;;5095738;27;45521;-69
2023/12/17 13:57:30;;;;;;;;;30.00;30.00;;;;;;;;5093072;27;45608;-70
2023/12/17 13:59:55;;;;;;;;;47.25;39.00;;;;;;;;5074401;27;46454;-70
2023/12/17 14:02:23;;;;;;;;;43.25;36.50;;;;;;;;5092847;27;45359;-68
2023/12/17 14:04:48;;;;;;;;;51.25;39.75;;;;;;;;5101547;27;45433;-70
2023/12/17 14:07:14;;;;;;;;;53.67;38.33;;;;;;;;5096962;27;45448;-69